Time;durP1;ratioP1;P1;durP2;ratioP2;P2;SDS_P1;SDS_P2;PMS_P1;PMS_P2;Temp;Humidity;BMP_temperature;BMP_pressure;BME280_temperature;BME280_humidity;BME280_pressure;Samples;Min_cycle;Max_cycle;Signal;HPM_P1;HPM_P2
2021/12/11 00:00:55;;;;;;;29.63;17.52;;;;;;;;;;5035354;28;20045;-85
2021/12/11 00:03:26;;;;;;;36.72;18.80;;;;;;;;;;5041042;28;20049;-85
2021/12/11 00:05:56;;;;;;;63.58;20.73;;;;;;;;;;5026081;28;20115;-85
2021/12/11 00:08:31;;;;;;;250.25;24.23;;;;;;;;;;5027187;28;20045;-85
2021/12/11 00:11:09;;;;;;;64.15;20.17;;;;;;;;;;5007601;28;20806;-85
2021/12/11 00:13:38;;;;;;;50.83;21.33;;;;;;;;;;5022219;28;20889;-85
2021/12/11 00:16:05;;;;;;;35.67;20.27;;;;;;;;;;5024795;28;20057;-86
2021/12/11 00:18:31;;;;;;;34.72;19.85;;;;;;;;;;5024220;28;20049;-86
2021/12/11 00:21:12;;;;;;;37.58;20.58;;;;;;;;;;5025304;28;20055;-85
2021/12/11 00:23:43;;;;;;;34.50;19.52;;;;;;;;;;5013707;28;20033;-86
2021/12/11 00:26:11;;;;;;;40.17;19.25;;;;;;;;;;5016575;28;20038;-85
2021/12/11 00:28:45;;;;;;;76.95;19.55;;;;;;;;;;5025538;28;20120;-85
2021/12/11 00:31:11;;;;;;;;;;;;;;;;;;5028085;28;20041;-85
2021/12/11 00:33:38;;;;;;;179.35;20.80;;;;;;;;;;5020091;28;19921;-85
2021/12/11 00:36:08;;;;;;;155.90;20.63;;;;;;;;;;5036417;28;20520;-85
2021/12/11 00:38:34;;;;;;;192.73;18.65;;;;;;;;;;5037485;28;20072;-85
2021/12/11 00:41:02;;;;;;;252.38;21.88;;;;;;;;;;5035160;28;20051;-86
2021/12/11 00:43:30;;;;;;;212.98;19.42;;;;;;;;;;5031022;28;20048;-86
2021/12/11 00:45:58;;;;;;;151.45;17.63;;;;;;;;;;5038100;28;20667;-85
2021/12/11 00:48:25;;;;;;;80.15;16.88;;;;;;;;;;5043362;28;20046;-85
2021/12/11 00:51:21;;;;;;;50.47;17.25;;;;;;;;;;5035151;28;20500;-85
2021/12/11 00:53:50;;;;;;;45.00;17.27;;;;;;;;;;5012634;28;20047;-85
2021/12/11 00:56:19;;;;;;;31.80;16.60;;;;;;;;;;5033984;28;20797;-85
2021/12/11 00:58:47;;;;;;;24.02;14.77;;;;;;;;;;5028884;28;20038;-85
2021/12/11 01:01:15;;;;;;;23.45;15.52;;;;;;;;;;5003928;28;20044;-85
2021/12/11 01:03:49;;;;;;;37.75;16.48;;;;;;;;;;5036024;28;20072;-85
2021/12/11 01:06:18;;;;;;;28.23;17.30;;;;;;;;;;5034945;28;20063;-85
2021/12/11 01:08:51;;;;;;;31.92;17.38;;;;;;;;;;5036059;28;20045;-86
2021/12/11 01:11:20;;;;;;;41.35;16.90;;;;;;;;;;5041312;28;20075;-85
2021/12/11 01:13:53;;;;;;;29.90;15.45;;;;;;;;;;5039001;28;20082;-85
2021/12/11 01:16:21;;;;;;;23.95;15.57;;;;;;;;;;5010459;28;20041;-85
2021/12/11 01:18:49;;;;;;;25.02;15.35;;;;;;;;;;5037474;28;20168;-85
2021/12/11 01:26:33;;;;;;;29.77;17.65;;;;;;;;;;5028014;28;20059;-85
2021/12/11 01:28:59;;;;;;;30.98;18.20;;;;;;;;;;5028358;28;20048;-85
2021/12/11 01:31:27;;;;;;;27.60;17.02;;;;;;;;;;5028027;28;20455;-84
2021/12/11 01:33:54;;;;;;;28.05;16.63;;;;;;;;;;5036044;28;20049;-85
2021/12/11 01:36:20;;;;;;;25.05;14.85;;;;;;;;;;5025088;28;20053;-84
2021/12/11 01:38:46;;;;;;;28.13;16.58;;;;;;;;;;5024714;28;20125;-85
2021/12/11 01:41:19;;;;;;;26.88;17.38;;;;;;;;;;5033334;28;20049;-84
2021/12/11 01:43:46;;;;;;;27.58;17.42;;;;;;;;;;5034610;28;20496;-85
2021/12/11 01:46:12;;;;;;;30.13;17.83;;;;;;;;;;5033215;28;20047;-85
2021/12/11 01:48:40;;;;;;;27.00;18.30;;;;;;;;;;5023891;28;20125;-84
2021/12/11 01:51:19;;;;;;;31.98;18.30;;;;;;;;;;5021419;28;20425;-84
2021/12/11 01:53:55;;;;;;;30.95;18.67;;;;;;;;;;5034014;28;20052;-84
2021/12/11 01:56:23;;;;;;;33.25;20.75;;;;;;;;;;5022478;28;20049;-84
2021/12/11 01:58:57;;;;;;;42.45;23.05;;;;;;;;;;5028497;28;20493;-85
2021/12/11 02:01:35;;;;;;;37.75;23.02;;;;;;;;;;5007708;28;20099;-84
2021/12/11 02:04:01;;;;;;;40.03;23.83;;;;;;;;;;5029659;28;20057;-84
2021/12/11 02:06:36;;;;;;;41.63;22.80;;;;;;;;;;5012563;28;20119;-85
2021/12/11 02:09:12;;;;;;;44.95;23.33;;;;;;;;;;5007024;28;20041;-85
2021/12/11 02:11:48;;;;;;;41.15;23.92;;;;;;;;;;5032321;28;20120;-86
2021/12/11 02:14:16;;;;;;;45.40;23.55;;;;;;;;;;5035235;28;20552;-85
2021/12/11 02:16:47;;;;;;;48.20;24.05;;;;;;;;;;5039080;28;20038;-85
2021/12/11 02:19:19;;;;;;;44.45;23.55;;;;;;;;;;5008501;28;20167;-84
2021/12/11 02:21:55;;;;;;;47.00;25.70;;;;;;;;;;5026681;28;20412;-85
2021/12/11 02:24:24;;;;;;;42.63;23.55;;;;;;;;;;5027256;28;21047;-85
2021/12/11 02:26:51;;;;;;;47.28;26.70;;;;;;;;;;5029527;28;20126;-85
2021/12/11 02:29:17;;;;;;;45.90;24.15;;;;;;;;;;5038375;28;20042;-85
2021/12/11 02:31:49;;;;;;;43.03;23.40;;;;;;;;;;5037430;28;20037;-85
2021/12/11 02:34:18;;;;;;;43.00;24.52;;;;;;;;;;5009860;28;20033;-84
2021/12/11 02:36:48;;;;;;;42.65;23.65;;;;;;;;;;5034204;28;20380;-85
2021/12/11 02:39:14;;;;;;;40.45;22.88;;;;;;;;;;5033065;28;20076;-84
2021/12/11 02:41:49;;;;;;;40.45;24.58;;;;;;;;;;5019392;28;20045;-85
2021/12/11 02:44:20;;;;;;;39.80;24.15;;;;;;;;;;5040681;28;20045;-84
2021/12/11 02:46:54;;;;;;;39.95;23.83;;;;;;;;;;5034487;28;20053;-84
2021/12/11 02:49:26;;;;;;;41.15;23.52;;;;;;;;;;5030848;28;20038;-85
2021/12/11 02:51:55;;;;;;;36.67;23.40;;;;;;;;;;5023902;28;20513;-85
2021/12/11 02:54:31;;;;;;;37.45;23.58;;;;;;;;;;5015420;28;20053;-85
2021/12/11 02:57:08;;;;;;;43.60;24.50;;;;;;;;;;5020504;28;20041;-85
2021/12/11 02:59:43;;;;;;;39.70;24.58;;;;;;;;;;5027699;28;20033;-86
2021/12/11 03:02:13;;;;;;;35.53;22.50;;;;;;;;;;5024411;28;20049;-83
2021/12/11 03:04:51;;;;;;;43.10;23.25;;;;;;;;;;5028636;28;20121;-84
2021/12/11 03:07:20;;;;;;;43.10;24.45;;;;;;;;;;5025672;28;20619;-85
2021/12/11 03:09:49;;;;;;;39.17;21.85;;;;;;;;;;5021907;28;20057;-85
2021/12/11 03:12:16;;;;;;;40.50;23.25;;;;;;;;;;5015188;28;20055;-86
2021/12/11 03:14:43;;;;;;;40.53;23.27;;;;;;;;;;5034335;28;20603;-85
2021/12/11 03:17:09;;;;;;;40.85;23.50;;;;;;;;;;5039853;28;20045;-84
2021/12/11 03:19:45;;;;;;;45.05;23.77;;;;;;;;;;5033897;28;20038;-84
2021/12/11 03:22:20;;;;;;;36.25;23.42;;;;;;;;;;5025765;28;20047;-85
2021/12/11 03:24:55;;;;;;;39.42;24.58;;;;;;;;;;4980876;28;20045;-85
2021/12/11 03:27:21;;;;;;;37.33;23.13;;;;;;;;;;5009660;28;20049;-85
2021/12/11 03:29:47;;;;;;;39.67;22.65;;;;;;;;;;5010597;28;20050;-85
2021/12/11 03:32:13;;;;;;;41.60;24.20;;;;;;;;;;5014819;28;20057;-86
2021/12/11 03:34:40;;;;;;;39.30;22.40;;;;;;;;;;4990689;28;20045;-85
2021/12/11 03:37:08;;;;;;;34.63;20.80;;;;;;;;;;5005433;28;20041;-85
2021/12/11 03:39:37;;;;;;;33.90;19.58;;;;;;;;;;4989164;28;20054;-85
2021/12/11 03:42:07;;;;;;;40.17;21.10;;;;;;;;;;4974183;28;20038;-85
2021/12/11 03:44:33;;;;;;;34.78;20.50;;;;;;;;;;4983484;28;20050;-84
2021/12/11 03:47:02;;;;;;;41.72;23.10;;;;;;;;;;4983387;28;20133;-85
2021/12/11 03:49:29;;;;;;;37.35;22.48;;;;;;;;;;5003869;28;20132;-84
2021/12/11 03:51:55;;;;;;;43.92;22.92;;;;;;;;;;4970354;28;20453;-85
2021/12/11 03:54:24;;;;;;;52.75;28.38;;;;;;;;;;5004527;28;20042;-85
2021/12/11 03:56:50;;;;;;;46.05;26.55;;;;;;;;;;5025914;28;20136;-84
2021/12/11 03:59:16;;;;;;;45.38;25.85;;;;;;;;;;5025783;28;20042;-86
2021/12/11 04:02:06;;;;;;;45.13;25.58;;;;;;;;;;5033210;28;20044;-85
2021/12/11 04:04:35;;;;;;;52.10;25.40;;;;;;;;;;5034150;28;20055;-85
2021/12/11 04:07:02;;;;;;;49.50;27.02;;;;;;;;;;5032843;28;20060;-84
2021/12/11 04:09:28;;;;;;;46.80;26.25;;;;;;;;;;5030456;28;20037;-84
2021/12/11 04:11:55;;;;;;;49.55;26.98;;;;;;;;;;5026563;28;20033;-84
2021/12/11 04:14:23;;;;;;;49.50;26.75;;;;;;;;;;5036362;28;20217;-84
2021/12/11 04:16:51;;;;;;;60.38;28.05;;;;;;;;;;5022593;28;22057;-84
2021/12/11 04:19:17;;;;;;;47.05;26.05;;;;;;;;;;5026240;28;20781;-84
2021/12/11 04:21:44;;;;;;;49.20;27.55;;;;;;;;;;5029961;28;20052;-84
2021/12/11 04:24:11;;;;;;;50.28;27.40;;;;;;;;;;5033172;28;20106;-84
2021/12/11 04:26:38;;;;;;;44.05;26.23;;;;;;;;;;5027606;28;20041;-83
2021/12/11 04:29:04;;;;;;;52.30;27.38;;;;;;;;;;5039831;28;20045;-84
2021/12/11 04:31:32;;;;;;;47.35;26.88;;;;;;;;;;5035984;28;20045;-85
2021/12/11 04:34:00;;;;;;;45.40;25.02;;;;;;;;;;5035880;28;20041;-85
2021/12/11 04:36:28;;;;;;;40.53;24.63;;;;;;;;;;5029750;28;20041;-85
2021/12/11 04:38:55;;;;;;;46.13;24.48;;;;;;;;;;5033221;28;20503;-85
2021/12/11 04:41:26;;;;;;;55.55;26.27;;;;;;;;;;5022168;28;20065;-85
2021/12/11 04:43:54;;;;;;;47.35;26.90;;;;;;;;;;5003033;28;20045;-85
2021/12/11 04:46:21;;;;;;;48.47;25.60;;;;;;;;;;5022953;28;20073;-85
2021/12/11 04:49:03;;;;;;;46.17;26.90;;;;;;;;;;5043627;28;20120;-86
2021/12/11 04:54:33;;;;;;;47.38;25.95;;;;;;;;;;5027393;28;20045;-86
2021/12/11 05:10:03;;;;;;;45.35;25.52;;;;;;;;;;5025805;28;20072;-83
2021/12/11 05:12:35;;;;;;;45.05;25.80;;;;;;;;;;5024725;28;20132;-83
2021/12/11 05:15:03;;;;;;;46.28;25.80;;;;;;;;;;5039197;28;20045;-82
2021/12/11 05:17:29;;;;;;;47.53;25.80;;;;;;;;;;5045920;28;20030;-83
2021/12/11 05:19:55;;;;;;;44.95;26.27;;;;;;;;;;5041266;28;20037;-83
2021/12/11 05:22:21;;;;;;;43.50;23.63;;;;;;;;;;5046913;28;20050;-83
2021/12/11 05:24:50;;;;;;;44.20;25.38;;;;;;;;;;5019619;28;20041;-84
2021/12/11 05:27:16;;;;;;;47.75;26.20;;;;;;;;;;5020391;28;20037;-85
2021/12/11 05:29:43;;;;;;;42.85;25.15;;;;;;;;;;5020968;28;20064;-84
2021/12/11 05:32:11;;;;;;;49.15;25.50;;;;;;;;;;5020396;28;20124;-83
2021/12/11 05:34:37;;;;;;;70.97;31.70;;;;;;;;;;5021959;28;20092;-83
2021/12/11 05:37:04;;;;;;;45.50;25.15;;;;;;;;;;5025195;28;20401;-83
2021/12/11 05:39:31;;;;;;;43.30;25.25;;;;;;;;;;5006770;28;20053;-83
2021/12/11 05:41:57;;;;;;;46.15;26.63;;;;;;;;;;5022948;28;20045;-83
2021/12/11 05:44:24;;;;;;;50.20;25.10;;;;;;;;;;5024637;28;20130;-84
2021/12/11 05:46:51;;;;;;;49.25;25.25;;;;;;;;;;5022974;28;20048;-82
2021/12/11 05:49:17;;;;;;;42.42;25.10;;;;;;;;;;5024327;28;20068;-83
2021/12/11 05:51:44;;;;;;;43.10;22.92;;;;;;;;;;5023465;28;20041;-83
2021/12/11 05:54:15;;;;;;;45.15;25.38;;;;;;;;;;5039668;28;20528;-83
2021/12/11 05:56:41;;;;;;;41.95;24.15;;;;;;;;;;5024037;28;20117;-83
2021/12/11 05:59:10;;;;;;;44.53;25.02;;;;;;;;;;5024197;28;20132;-83
2021/12/11 06:01:36;;;;;;;47.80;26.55;;;;;;;;;;5024015;28;20091;-83
2021/12/11 06:04:07;;;;;;;50.63;26.75;;;;;;;;;;5023167;28;20433;-84
2021/12/11 06:06:33;;;;;;;48.35;24.90;;;;;;;;;;5023895;28;20126;-83
2021/12/11 06:08:59;;;;;;;46.45;25.05;;;;;;;;;;5023208;28;20494;-83
2021/12/11 06:11:25;;;;;;;42.78;23.80;;;;;;;;;;5022578;28;20049;-83
2021/12/11 06:13:51;;;;;;;41.58;23.02;;;;;;;;;;5022788;28;20037;-83
2021/12/11 06:16:18;;;;;;;40.90;24.50;;;;;;;;;;5024298;28;20041;-83
2021/12/11 06:18:45;;;;;;;47.25;25.75;;;;;;;;;;5022310;28;20042;-83
2021/12/11 06:21:11;;;;;;;50.45;26.10;;;;;;;;;;5017506;28;20077;-83
2021/12/11 06:23:38;;;;;;;49.83;27.25;;;;;;;;;;5024274;28;20246;-83
2021/12/11 06:26:05;;;;;;;48.25;26.25;;;;;;;;;;5023938;28;20041;-84
2021/12/11 06:28:32;;;;;;;45.60;25.40;;;;;;;;;;5023835;28;20053;-83
2021/12/11 06:31:03;;;;;;;49.15;27.05;;;;;;;;;;5022789;28;20563;-84
2021/12/11 06:33:29;;;;;;;51.22;26.95;;;;;;;;;;5007177;28;20053;-84
2021/12/11 06:36:05;;;;;;;41.35;24.52;;;;;;;;;;5030923;28;20060;-84
2021/12/11 06:38:32;;;;;;;50.45;26.98;;;;;;;;;;5030268;28;20041;-84
2021/12/11 06:41:06;;;;;;;44.78;25.75;;;;;;;;;;5033279;28;20078;-83
2021/12/11 06:43:32;;;;;;;48.90;27.40;;;;;;;;;;5045252;28;20413;-83
2021/12/11 06:45:59;;;;;;;50.90;26.52;;;;;;;;;;5040050;28;20084;-83
2021/12/11 06:48:25;;;;;;;49.22;26.98;;;;;;;;;;5024127;28;20034;-83
2021/12/11 06:50:52;;;;;;;52.63;27.77;;;;;;;;;;5023729;28;20084;-84
2021/12/11 06:53:22;;;;;;;51.92;26.02;;;;;;;;;;5024848;28;20095;-83
2021/12/11 06:55:49;;;;;;;53.33;29.00;;;;;;;;;;5032412;28;20081;-84
2021/12/11 06:58:15;;;;;;;51.08;25.98;;;;;;;;;;5032609;28;20125;-83
2021/12/11 07:00:41;;;;;;;55.53;29.08;;;;;;;;;;5027086;28;20404;-83
2021/12/11 07:03:13;;;;;;;58.92;28.48;;;;;;;;;;5044868;28;20044;-84
2021/12/11 07:05:40;;;;;;;50.55;26.15;;;;;;;;;;5030439;28;20053;-85
2021/12/11 07:08:08;;;;;;;48.83;27.58;;;;;;;;;;5037179;28;20037;-85
2021/12/11 07:10:35;;;;;;;47.78;26.80;;;;;;;;;;5018484;28;20046;-85
2021/12/11 07:13:02;;;;;;;48.85;27.05;;;;;;;;;;5038405;28;20129;-86
2021/12/11 07:15:34;;;;;;;53.55;27.42;;;;;;;;;;5012747;28;20050;-84
2021/12/11 07:18:00;;;;;;;51.40;26.55;;;;;;;;;;5013877;28;20052;-85
2021/12/11 07:20:26;;;;;;;52.83;28.67;;;;;;;;;;5031100;28;20044;-86
2021/12/11 07:22:54;;;;;;;54.85;28.95;;;;;;;;;;5037859;28;20049;-87
2021/12/11 07:25:27;;;;;;;51.05;26.88;;;;;;;;;;5016108;28;20041;-86
2021/12/11 07:27:56;;;;;;;51.80;27.17;;;;;;;;;;5049978;28;20042;-86
2021/12/11 07:30:24;;;;;;;46.30;25.55;;;;;;;;;;5035920;28;20060;-87
2021/12/11 07:32:57;;;;;;;58.72;26.98;;;;;;;;;;5016055;28;20038;-86
2021/12/11 07:35:23;;;;;;;51.85;28.08;;;;;;;;;;5049241;28;20080;-87
2021/12/11 07:37:51;;;;;;;55.63;28.25;;;;;;;;;;5028796;28;20037;-85
2021/12/11 07:40:26;;;;;;;51.63;28.90;;;;;;;;;;5030867;28;20119;-84
2021/12/11 07:42:56;;;;;;;57.35;29.70;;;;;;;;;;5011322;28;20105;-86
2021/12/11 07:45:22;;;;;;;53.47;28.42;;;;;;;;;;5025813;28;20045;-85
2021/12/11 07:47:49;;;;;;;50.10;27.38;;;;;;;;;;5043366;28;20033;-85
2021/12/11 07:50:22;;;;;;;53.17;28.73;;;;;;;;;;5044212;28;20106;-84
2021/12/11 07:52:49;;;;;;;55.33;29.52;;;;;;;;;;5014842;28;20515;-86
2021/12/11 07:55:15;;;;;;;56.10;30.88;;;;;;;;;;5031398;28;20519;-85
2021/12/11 07:57:42;;;;;;;58.20;29.85;;;;;;;;;;5028822;28;20552;-84
2021/12/11 08:00:10;;;;;;;54.85;29.10;;;;;;;;;;5037981;28;20045;-83
2021/12/11 08:02:36;;;;;;;56.08;30.25;;;;;;;;;;5049009;28;20087;-85
2021/12/11 08:05:04;;;;;;;51.63;29.58;;;;;;;;;;5030565;28;20045;-84
2021/12/11 08:07:30;;;;;;;56.10;30.05;;;;;;;;;;5030474;28;20132;-84
2021/12/11 08:09:56;;;;;;;56.28;28.67;;;;;;;;;;5028239;28;20974;-84
2021/12/11 08:12:27;;;;;;;52.67;29.25;;;;;;;;;;5030968;28;20037;-84
2021/12/11 08:14:54;;;;;;;55.60;29.20;;;;;;;;;;5030898;28;20081;-85
2021/12/11 08:17:20;;;;;;;56.45;30.48;;;;;;;;;;5029637;28;20449;-86
2021/12/11 08:19:46;;;;;;;53.88;26.85;;;;;;;;;;5031754;28;20393;-86
2021/12/11 08:22:15;;;;;;;51.58;28.10;;;;;;;;;;5026720;28;20100;-84
2021/12/11 08:24:41;;;;;;;49.72;29.17;;;;;;;;;;5022711;28;20049;-85
2021/12/11 08:27:14;;;;;;;55.85;28.77;;;;;;;;;;5026518;28;20042;-85
2021/12/11 08:29:46;;;;;;;50.88;28.52;;;;;;;;;;5027477;28;20459;-82
2021/12/11 08:32:12;;;;;;;53.08;27.85;;;;;;;;;;5028776;28;20091;-84
2021/12/11 08:34:39;;;;;;;49.42;28.98;;;;;;;;;;5026066;28;20469;-84
2021/12/11 08:37:15;;;;;;;55.33;30.35;;;;;;;;;;5019443;28;20393;-83
2021/12/11 08:39:42;;;;;;;50.42;27.50;;;;;;;;;;5010960;28;20521;-85
2021/12/11 08:42:23;;;;;;;60.05;30.58;;;;;;;;;;5024070;28;20049;-85
2021/12/11 08:44:52;;;;;;;53.10;25.83;;;;;;;;;;5038243;28;20068;-85
2021/12/11 08:47:20;;;;;;;53.00;29.48;;;;;;;;;;5041002;28;20033;-85
2021/12/11 08:49:58;;;;;;;51.22;26.88;;;;;;;;;;5030519;28;20052;-86
2021/12/11 08:52:27;;;;;;;52.65;27.02;;;;;;;;;;5016454;28;20216;-85
2021/12/11 08:55:18;;;;;;;55.72;29.15;;;;;;;;;;5008740;28;20065;-85
2021/12/11 08:57:49;;;;;;;50.67;28.05;;;;;;;;;;5012681;28;20076;-85
2021/12/11 09:00:38;;;;;;;49.90;28.90;;;;;;;;;;5025791;28;20045;-85
2021/12/11 09:03:09;;;;;;;51.78;28.83;;;;;;;;;;5024220;28;20526;-85
2021/12/11 09:05:38;;;;;;;53.85;28.60;;;;;;;;;;5024182;28;20049;-85
2021/12/11 09:08:14;;;;;;;49.28;26.85;;;;;;;;;;5025569;28;20042;-85
2021/12/11 09:10:50;;;;;;;54.30;30.23;;;;;;;;;;5023983;28;20081;-86
2021/12/11 09:13:39;;;;;;;58.55;28.90;;;;;;;;;;5040441;28;20368;-83
2021/12/11 09:16:14;;;;;;;43.97;25.60;;;;;;;;;;5011950;28;20501;-84
2021/12/11 09:18:49;;;;;;;54.03;29.17;;;;;;;;;;5018118;28;20049;-83
2021/12/11 09:21:27;;;;;;;52.72;29.08;;;;;;;;;;5025501;28;20045;-84
2021/12/11 09:24:19;;;;;;;42.70;25.95;;;;;;;;;;5023094;28;20049;-84
2021/12/11 09:27:05;;;;;;;46.83;28.23;;;;;;;;;;5025657;28;20049;-84
2021/12/11 09:30:10;;;;;;;54.15;29.45;;;;;;;;;;5025918;28;20026;-83
2021/12/11 09:32:50;;;;;;;43.97;25.43;;;;;;;;;;5020481;28;20061;-84
2021/12/11 09:35:27;;;;;;;42.78;24.42;;;;;;;;;;5045893;28;20037;-84
2021/12/11 09:37:55;;;;;;;44.63;25.00;;;;;;;;;;5026948;28;20060;-83
2021/12/11 09:40:21;;;;;;;39.72;20.55;;;;;;;;;;5026774;28;20048;-84
2021/12/11 09:42:47;;;;;;;43.45;24.67;;;;;;;;;;5027800;28;20052;-83
2021/12/11 09:45:16;;;;;;;46.40;28.60;;;;;;;;;;5024651;28;20092;-84
2021/12/11 09:47:50;;;;;;;51.72;27.77;;;;;;;;;;5019255;28;20112;-84
2021/12/11 09:50:24;;;;;;;49.80;26.23;;;;;;;;;;5023985;28;20045;-85
2021/12/11 09:52:52;;;;;;;46.22;27.40;;;;;;;;;;5016169;28;20659;-85
2021/12/11 09:55:23;;;;;;;44.65;27.58;;;;;;;;;;5019567;28;20053;-84
2021/12/11 09:57:55;;;;;;;52.10;28.63;;;;;;;;;;5023174;28;20125;-83
2021/12/11 10:00:33;;;;;;;42.92;23.05;;;;;;;;;;5024893;28;20497;-83
2021/12/11 10:03:02;;;;;;;44.33;26.50;;;;;;;;;;5025366;28;20134;-84
2021/12/11 10:05:35;;;;;;;40.60;26.10;;;;;;;;;;5024050;28;20064;-84
2021/12/11 10:08:41;;;;;;;41.47;25.35;;;;;;;;;;5024912;28;20057;-84
2021/12/11 10:11:13;;;;;;;41.67;26.65;;;;;;;;;;5023204;28;20363;-84
2021/12/11 10:13:49;;;;;;;45.63;24.15;;;;;;;;;;5024880;28;20053;-84
2021/12/11 10:16:16;;;;;;;42.00;27.20;;;;;;;;;;5024277;28;20135;-84
2021/12/11 10:18:43;;;;;;;45.10;25.88;;;;;;;;;;5038234;28;20061;-84
2021/12/11 10:21:11;;;;;;;47.10;24.10;;;;;;;;;;4991225;28;20045;-84
2021/12/11 10:23:38;;;;;;;34.15;20.38;;;;;;;;;;5006010;28;20052;-84
2021/12/11 10:26:10;;;;;;;35.88;23.00;;;;;;;;;;5011161;28;20049;-84
2021/12/11 10:28:36;;;;;;;33.45;21.42;;;;;;;;;;5027888;28;20459;-84
2021/12/11 10:31:06;;;;;;;35.55;22.63;;;;;;;;;;5027827;28;20034;-84
2021/12/11 10:33:33;;;;;;;36.47;21.80;;;;;;;;;;5024191;28;20045;-84
2021/12/11 10:36:02;;;;;;;34.45;21.13;;;;;;;;;;5031186;28;20157;-84
2021/12/11 10:38:29;;;;;;;35.25;21.83;;;;;;;;;;5035177;28;20068;-84
2021/12/11 10:41:05;;;;;;;37.13;21.85;;;;;;;;;;5026617;28;20053;-85
2021/12/11 10:43:46;;;;;;;32.58;20.02;;;;;;;;;;5018775;28;20048;-85
2021/12/11 10:46:13;;;;;;;28.65;18.42;;;;;;;;;;5029768;28;20536;-85
2021/12/11 10:48:42;;;;;;;29.42;19.10;;;;;;;;;;5021977;28;20037;-84
2021/12/11 10:51:15;;;;;;;27.40;17.65;;;;;;;;;;5025986;28;20053;-84
2021/12/11 10:53:42;;;;;;;29.30;16.83;;;;;;;;;;5027186;28;20053;-85
2021/12/11 10:56:09;;;;;;;33.03;20.08;;;;;;;;;;5009816;28;20050;-85
2021/12/11 10:58:38;;;;;;;29.58;16.90;;;;;;;;;;5029263;28;20124;-86
2021/12/11 11:01:27;;;;;;;27.20;17.67;;;;;;;;;;5027133;28;20045;-85
2021/12/11 11:03:55;;;;;;;33.60;18.08;;;;;;;;;;5026245;28;20466;-85
2021/12/11 11:06:21;;;;;;;26.17;17.20;;;;;;;;;;5025308;28;20049;-85
2021/12/11 11:08:48;;;;;;;26.23;16.98;;;;;;;;;;5027547;28;20045;-84
2021/12/11 11:11:16;;;;;;;27.73;17.23;;;;;;;;;;5028604;28;20049;-83
2021/12/11 11:13:44;;;;;;;27.77;18.15;;;;;;;;;;5027104;28;20045;-82
2021/12/11 11:16:13;;;;;;;25.65;15.38;;;;;;;;;;5028856;28;20045;-84
2021/12/11 11:18:39;;;;;;;25.02;15.98;;;;;;;;;;5027038;28;20647;-84
2021/12/11 11:21:09;;;;;;;30.13;17.35;;;;;;;;;;5026862;28;20037;-84
2021/12/11 11:23:36;;;;;;;28.35;18.08;;;;;;;;;;5027480;28;20049;-83
2021/12/11 11:26:08;;;;;;;27.63;16.92;;;;;;;;;;5031884;28;20116;-87
2021/12/11 11:28:35;;;;;;;32.85;19.15;;;;;;;;;;5031793;28;20743;-84
2021/12/11 11:31:06;;;;;;;35.83;19.20;;;;;;;;;;5030938;28;20413;-84
2021/12/11 11:33:33;;;;;;;25.55;16.15;;;;;;;;;;5043788;28;20054;-84
2021/12/11 11:36:00;;;;;;;33.35;19.17;;;;;;;;;;5062201;28;20042;-83
2021/12/11 11:38:28;;;;;;;32.30;17.05;;;;;;;;;;5046212;28;20045;-84
2021/12/11 11:40:56;;;;;;;31.90;17.05;;;;;;;;;;5031070;28;20536;-85
2021/12/11 11:43:24;;;;;;;30.50;17.90;;;;;;;;;;5028218;28;20045;-83
2021/12/11 11:45:57;;;;;;;34.42;17.77;;;;;;;;;;5030686;28;20030;-83
2021/12/11 11:48:27;;;;;;;36.33;20.95;;;;;;;;;;5031757;28;20400;-84
2021/12/11 11:50:55;;;;;;;34.45;21.83;;;;;;;;;;5021865;28;20042;-84
2021/12/11 11:53:24;;;;;;;32.78;18.88;;;;;;;;;;5025135;28;20508;-85
2021/12/11 11:55:52;;;;;;;39.40;21.70;;;;;;;;;;5047697;28;20075;-85
2021/12/11 11:58:20;;;;;;;34.50;20.65;;;;;;;;;;5035993;28;20540;-86
2021/12/11 12:00:52;;;;;;;38.42;22.30;;;;;;;;;;5029244;28;20505;-86
2021/12/11 12:03:21;;;;;;;35.25;22.52;;;;;;;;;;5038887;28;20069;-86
2021/12/11 12:05:49;;;;;;;35.40;21.02;;;;;;;;;;5030637;28;20128;-85
2021/12/11 12:08:16;;;;;;;38.50;23.30;;;;;;;;;;5022414;28;20030;-85
2021/12/11 12:10:43;;;;;;;29.83;19.55;;;;;;;;;;5025489;28;20050;-85
2021/12/11 12:13:10;;;;;;;35.63;20.48;;;;;;;;;;5024255;28;20668;-84
2021/12/11 12:15:43;;;;;;;34.08;20.65;;;;;;;;;;5008094;28;20084;-87
2021/12/11 12:18:10;;;;;;;32.10;19.40;;;;;;;;;;5024760;28;20053;-84
2021/12/11 12:20:50;;;;;;;33.08;19.77;;;;;;;;;;5022762;28;20049;-86
2021/12/11 12:23:18;;;;;;;33.38;19.67;;;;;;;;;;5026018;28;20057;-85
2021/12/11 12:25:46;;;;;;;28.95;17.17;;;;;;;;;;5024838;28;20095;-85
2021/12/11 12:28:12;;;;;;;30.35;19.52;;;;;;;;;;5025623;28;20053;-84
2021/12/11 12:30:42;;;;;;;32.30;20.48;;;;;;;;;;5024727;28;20041;-85
2021/12/11 12:33:08;;;;;;;42.13;21.35;;;;;;;;;;5037609;28;20138;-84
2021/12/11 12:35:34;;;;;;;34.53;21.63;;;;;;;;;;5030666;28;20048;-84
2021/12/11 12:38:10;;;;;;;35.47;21.10;;;;;;;;;;5031035;28;20177;-85
2021/12/11 12:40:59;;;;;;;33.38;18.23;;;;;;;;;;5033079;28;20045;-84
2021/12/11 12:46:13;;;;;;;38.30;21.42;;;;;;;;;;5035161;28;20049;-84
2021/12/11 12:48:39;;;;;;;39.78;21.63;;;;;;;;;;5028072;28;20524;-85
2021/12/11 12:51:11;;;;;;;41.47;23.13;;;;;;;;;;5027082;28;20045;-85
2021/12/11 12:53:38;;;;;;;38.42;21.25;;;;;;;;;;5027778;28;20516;-85
2021/12/11 12:56:24;;;;;;;35.58;19.15;;;;;;;;;;5002384;28;20726;-85
2021/12/11 12:58:58;;;;;;;35.53;20.00;;;;;;;;;;5026328;28;20050;-85
2021/12/11 13:01:28;;;;;;;40.05;21.02;;;;;;;;;;5041980;28;20045;-85
2021/12/11 13:03:54;;;;;;;37.63;20.67;;;;;;;;;;5030595;28;20049;-86
2021/12/11 13:06:23;;;;;;;37.25;22.63;;;;;;;;;;5042125;28;20053;-86
2021/12/11 13:08:55;;;;;;;37.22;22.90;;;;;;;;;;5034654;28;20049;-85
2021/12/11 13:11:28;;;;;;;43.30;24.20;;;;;;;;;;5032246;28;20809;-83
2021/12/11 13:14:10;;;;;;;36.15;21.98;;;;;;;;;;5034246;28;20044;-85
2021/12/11 13:16:38;;;;;;;36.28;21.40;;;;;;;;;;5002211;28;20045;-86
2021/12/11 13:19:10;;;;;;;36.53;22.17;;;;;;;;;;5008619;28;20080;-87
2021/12/11 13:21:38;;;;;;;34.70;21.63;;;;;;;;;;5030052;28;20087;-86
2021/12/11 13:24:05;;;;;;;37.25;20.55;;;;;;;;;;5034325;28;20080;-86
2021/12/11 13:26:32;;;;;;;29.67;18.92;;;;;;;;;;5032866;28;20447;-86
2021/12/11 13:29:03;;;;;;;32.47;21.50;;;;;;;;;;5032924;28;20049;-84
2021/12/11 13:31:50;;;;;;;24.10;15.48;;;;;;;;;;5024773;28;20092;-85
2021/12/11 13:34:17;;;;;;;32.05;18.85;;;;;;;;;;5036815;28;20037;-85
2021/12/11 13:36:52;;;;;;;32.08;18.40;;;;;;;;;;5013884;28;20077;-84
2021/12/11 13:39:34;;;;;;;26.80;16.05;;;;;;;;;;5024811;28;20128;-85
2021/12/11 13:42:01;;;;;;;33.30;19.00;;;;;;;;;;5025750;28;20053;-86
2021/12/11 13:44:32;;;;;;;30.20;19.83;;;;;;;;;;5032688;28;20041;-83
2021/12/11 13:47:00;;;;;;;34.40;22.13;;;;;;;;;;5034359;28;20045;-84
2021/12/11 13:52:44;;;;;;;32.53;20.65;;;;;;;;;;5021346;28;20601;-84
2021/12/11 13:55:11;;;;;;;30.15;18.80;;;;;;;;;;5001307;28;20042;-85
2021/12/11 13:57:37;;;;;;;36.72;21.00;;;;;;;;;;5031227;28;20050;-84
2021/12/11 14:00:06;;;;;;;30.90;18.65;;;;;;;;;;5026264;28;20057;-85
2021/12/11 14:02:32;;;;;;;36.00;19.80;;;;;;;;;;5033194;28;20044;-85
2021/12/11 14:05:02;;;;;;;35.47;21.17;;;;;;;;;;5026474;28;20132;-85
2021/12/11 14:07:35;;;;;;;33.80;21.73;;;;;;;;;;5017060;28;20152;-83
2021/12/11 14:10:04;;;;;;;35.63;21.98;;;;;;;;;;5028848;28;20037;-84
2021/12/11 14:12:33;;;;;;;41.17;22.27;;;;;;;;;;5024720;28;20052;-87
2021/12/11 14:15:04;;;;;;;35.75;19.90;;;;;;;;;;5040877;28;20040;-84
2021/12/11 14:17:30;;;;;;;38.67;23.08;;;;;;;;;;5032940;28;20080;-84
2021/12/11 14:19:59;;;;;;;37.47;22.05;;;;;;;;;;5025310;28;20034;-84
2021/12/11 14:22:26;;;;;;;39.72;24.30;;;;;;;;;;5027714;28;20060;-84
2021/12/11 14:24:53;;;;;;;39.85;23.92;;;;;;;;;;5027251;28;20076;-85
2021/12/11 14:27:20;;;;;;;39.95;24.15;;;;;;;;;;5023897;28;20049;-85
2021/12/11 14:29:56;;;;;;;43.08;24.50;;;;;;;;;;5040015;28;20536;-84
2021/12/11 14:32:23;;;;;;;36.33;22.75;;;;;;;;;;5035067;28;20038;-84
2021/12/11 14:34:50;;;;;;;36.60;22.90;;;;;;;;;;5024242;28;20042;-84
2021/12/11 14:37:16;;;;;;;40.38;24.48;;;;;;;;;;5028592;28;20443;-84
2021/12/11 14:39:47;;;;;;;36.72;22.45;;;;;;;;;;5031226;28;20040;-85
2021/12/11 14:42:24;;;;;;;36.47;23.30;;;;;;;;;;5027456;28;20120;-84
2021/12/11 14:44:51;;;;;;;35.08;23.70;;;;;;;;;;5023857;28;20179;-84
2021/12/11 14:47:18;;;;;;;37.47;23.63;;;;;;;;;;5014849;28;20099;-84
2021/12/11 14:49:46;;;;;;;44.92;21.77;;;;;;;;;;5005005;28;20036;-85
2021/12/11 14:52:14;;;;;;;42.00;24.95;;;;;;;;;;5035500;28;20059;-84
2021/12/11 14:54:40;;;;;;;40.00;23.27;;;;;;;;;;5037190;28;20136;-84
2021/12/11 14:57:12;;;;;;;39.75;23.13;;;;;;;;;;5023990;28;20119;-85
2021/12/11 14:59:42;;;;;;;35.65;22.98;;;;;;;;;;5006805;28;20041;-85